sensor_id;sensor_type;location;lat;lon;timestamp;temperature;humidity
65876;HTU21D;52657;51.128;5.938;2023-12-04T00:01:15;4.10;71.02
65876;HTU21D;52657;51.128;5.938;2023-12-04T00:03:42;4.14;71.06
65876;HTU21D;52657;51.128;5.938;2023-12-04T00:06:09;4.17;70.92
65876;HTU21D;52657;51.128;5.938;2023-12-04T00:08:36;4.20;70.71
65876;HTU21D;52657;51.128;5.938;2023-12-04T00:11:02;4.20;70.58
65876;HTU21D;52657;51.128;5.938;2023-12-04T00:13:27;4.20;70.54
65876;HTU21D;52657;51.128;5.938;2023-12-04T00:15:55;4.19;70.51
65876;HTU21D;52657;51.128;5.938;2023-12-04T00:18:20;4.21;70.66
65876;HTU21D;52657;51.128;5.938;2023-12-04T00:20:46;4.23;70.75
65876;HTU21D;52657;51.128;5.938;2023-12-04T00:23:12;4.23;70.68
65876;HTU21D;52657;51.128;5.938;2023-12-04T00:25:37;4.20;70.56
65876;HTU21D;52657;51.128;5.938;2023-12-04T00:28:03;4.17;70.60
65876;HTU21D;52657;51.128;5.938;2023-12-04T00:30:28;4.16;70.74
65876;HTU21D;52657;51.128;5.938;2023-12-04T00:32:54;4.15;70.74
65876;HTU21D;52657;51.128;5.938;2023-12-04T00:35:19;4.15;70.80
65876;HTU21D;52657;51.128;5.938;2023-12-04T00:37:45;4.14;70.83
65876;HTU21D;52657;51.128;5.938;2023-12-04T00:40:11;4.15;70.95
65876;HTU21D;52657;51.128;5.938;2023-12-04T00:42:36;4.15;70.87
65876;HTU21D;52657;51.128;5.938;2023-12-04T00:45:02;4.20;70.84
65876;HTU21D;52657;51.128;5.938;2023-12-04T00:47:28;4.19;70.58
65876;HTU21D;52657;51.128;5.938;2023-12-04T00:49:54;4.17;70.49
65876;HTU21D;52657;51.128;5.938;2023-12-04T00:52:20;4.14;70.52
65876;HTU21D;52657;51.128;5.938;2023-12-04T00:54:45;4.10;70.63
65876;HTU21D;52657;51.128;5.938;2023-12-04T00:57:11;4.10;70.67
65876;HTU21D;52657;51.128;5.938;2023-12-04T00:59:36;4.10;70.68
65876;HTU21D;52657;51.128;5.938;2023-12-04T01:02:02;4.09;70.67
65876;HTU21D;52657;51.128;5.938;2023-12-04T01:04:28;4.08;70.68
65876;HTU21D;52657;51.128;5.938;2023-12-04T01:06:53;4.09;70.76
65876;HTU21D;52657;51.128;5.938;2023-12-04T01:09:19;4.13;70.73
65876;HTU21D;52657;51.128;5.938;2023-12-04T01:11:53;4.12;70.53
65876;HTU21D;52657;51.128;5.938;2023-12-04T01:14:19;4.13;70.43
65876;HTU21D;52657;51.128;5.938;2023-12-04T01:16:45;4.13;70.48
65876;HTU21D;52657;51.128;5.938;2023-12-04T01:19:11;4.12;70.39
65876;HTU21D;52657;51.128;5.938;2023-12-04T01:21:36;4.10;70.43
65876;HTU21D;52657;51.128;5.938;2023-12-04T01:24:02;4.12;70.61
65876;HTU21D;52657;51.128;5.938;2023-12-04T01:26:28;4.13;70.37
65876;HTU21D;52657;51.128;5.938;2023-12-04T01:28:53;4.13;70.31
65876;HTU21D;52657;51.128;5.938;2023-12-04T01:31:19;4.15;70.32
65876;HTU21D;52657;51.128;5.938;2023-12-04T01:33:44;4.17;70.40
65876;HTU21D;52657;51.128;5.938;2023-12-04T01:36:10;4.16;70.03
65876;HTU21D;52657;51.128;5.938;2023-12-04T01:38:37;4.14;69.88
65876;HTU21D;52657;51.128;5.938;2023-12-04T01:41:03;4.15;69.97
65876;HTU21D;52657;51.128;5.938;2023-12-04T01:43:29;4.16;69.72
65876;HTU21D;52657;51.128;5.938;2023-12-04T01:45:55;4.17;69.62
65876;HTU21D;52657;51.128;5.938;2023-12-04T01:48:21;4.16;69.52
65876;HTU21D;52657;51.128;5.938;2023-12-04T01:50:48;4.16;69.44
65876;HTU21D;52657;51.128;5.938;2023-12-04T01:53:14;4.15;69.29
65876;HTU21D;52657;51.128;5.938;2023-12-04T01:55:41;4.14;69.32
65876;HTU21D;52657;51.128;5.938;2023-12-04T01:58:07;4.15;69.31
65876;HTU21D;52657;51.128;5.938;2023-12-04T02:00:33;4.16;69.29
65876;HTU21D;52657;51.128;5.938;2023-12-04T02:03:00;4.17;69.15
65876;HTU21D;52657;51.128;5.938;2023-12-04T02:05:27;4.16;69.06
65876;HTU21D;52657;51.128;5.938;2023-12-04T02:07:55;4.17;68.97
65876;HTU21D;52657;51.128;5.938;2023-12-04T02:10:21;4.15;68.86
65876;HTU21D;52657;51.128;5.938;2023-12-04T02:12:48;4.13;68.78
65876;HTU21D;52657;51.128;5.938;2023-12-04T02:15:14;4.10;68.76
65876;HTU21D;52657;51.128;5.938;2023-12-04T02:17:43;4.07;68.78
65876;HTU21D;52657;51.128;5.938;2023-12-04T02:20:12;4.07;68.93
65876;HTU21D;52657;51.128;5.938;2023-12-04T02:22:38;4.06;68.84
65876;HTU21D;52657;51.128;5.938;2023-12-04T02:25:05;4.03;68.99
65876;HTU21D;52657;51.128;5.938;2023-12-04T02:27:44;4.01;68.93
65876;HTU21D;52657;51.128;5.938;2023-12-04T02:30:13;3.99;68.83
65876;HTU21D;52657;51.128;5.938;2023-12-04T02:32:45;3.98;69.00
65876;HTU21D;52657;51.128;5.938;2023-12-04T02:35:16;3.97;69.08
65876;HTU21D;52657;51.128;5.938;2023-12-04T02:37:45;4.01;68.99
65876;HTU21D;52657;51.128;5.938;2023-12-04T02:40:12;4.01;68.75
65876;HTU21D;52657;51.128;5.938;2023-12-04T02:42:39;3.99;68.62
65876;HTU21D;52657;51.128;5.938;2023-12-04T02:45:06;3.95;68.63
65876;HTU21D;52657;51.128;5.938;2023-12-04T02:47:31;3.93;68.69
65876;HTU21D;52657;51.128;5.938;2023-12-04T02:49:57;3.94;68.73
65876;HTU21D;52657;51.128;5.938;2023-12-04T02:52:22;3.92;68.76
65876;HTU21D;52657;51.128;5.938;2023-12-04T02:54:48;3.91;68.78
65876;HTU21D;52657;51.128;5.938;2023-12-04T02:57:14;3.91;68.88
65876;HTU21D;52657;51.128;5.938;2023-12-04T02:59:40;3.92;69.07
65876;HTU21D;52657;51.128;5.938;2023-12-04T03:02:06;3.94;69.00
65876;HTU21D;52657;51.128;5.938;2023-12-04T03:04:33;3.95;68.86
65876;HTU21D;52657;51.128;5.938;2023-12-04T03:06:59;3.97;68.87
65876;HTU21D;52657;51.128;5.938;2023-12-04T03:09:25;4.01;68.92
65876;HTU21D;52657;51.128;5.938;2023-12-04T03:11:51;4.05;68.97
65876;HTU21D;52657;51.128;5.938;2023-12-04T03:14:16;4.08;68.86
65876;HTU21D;52657;51.128;5.938;2023-12-04T03:16:42;4.09;68.52
65876;HTU21D;52657;51.128;5.938;2023-12-04T03:19:07;4.08;68.35
65876;HTU21D;52657;51.128;5.938;2023-12-04T03:21:33;4.06;68.26
65876;HTU21D;52657;51.128;5.938;2023-12-04T03:23:59;4.02;68.28
65876;HTU21D;52657;51.128;5.938;2023-12-04T03:26:24;4.00;68.41
65876;HTU21D;52657;51.128;5.938;2023-12-04T03:28:50;3.95;68.46
65876;HTU21D;52657;51.128;5.938;2023-12-04T03:31:16;3.93;68.63
65876;HTU21D;52657;51.128;5.938;2023-12-04T03:33:42;3.91;68.58
65876;HTU21D;52657;51.128;5.938;2023-12-04T03:36:08;3.91;68.65
65876;HTU21D;52657;51.128;5.938;2023-12-04T03:38:33;3.91;68.70
65876;HTU21D;52657;51.128;5.938;2023-12-04T03:40:59;3.91;68.73
65876;HTU21D;52657;51.128;5.938;2023-12-04T03:43:25;3.90;68.71
65876;HTU21D;52657;51.128;5.938;2023-12-04T03:45:51;3.89;68.69
65876;HTU21D;52657;51.128;5.938;2023-12-04T03:48:16;3.89;68.65
65876;HTU21D;52657;51.128;5.938;2023-12-04T03:50:42;3.89;68.57
65876;HTU21D;52657;51.128;5.938;2023-12-04T03:53:07;3.87;68.52
65876;HTU21D;52657;51.128;5.938;2023-12-04T03:55:33;3.83;68.42
65876;HTU21D;52657;51.128;5.938;2023-12-04T03:57:59;3.80;68.47
65876;HTU21D;52657;51.128;5.938;2023-12-04T04:00:24;3.79;68.43
65876;HTU21D;52657;51.128;5.938;2023-12-04T04:02:50;3.77;68.43
65876;HTU21D;52657;51.128;5.938;2023-12-04T04:05:16;3.75;68.36
65876;HTU21D;52657;51.128;5.938;2023-12-04T04:07:42;3.74;68.29
65876;HTU21D;52657;51.128;5.938;2023-12-04T04:10:08;3.76;68.26
65876;HTU21D;52657;51.128;5.938;2023-12-04T04:12:34;3.76;68.11
65876;HTU21D;52657;51.128;5.938;2023-12-04T04:15:00;3.76;68.02
65876;HTU21D;52657;51.128;5.938;2023-12-04T04:17:26;3.73;68.07
65876;HTU21D;52657;51.128;5.938;2023-12-04T04:19:52;3.73;68.09
65876;HTU21D;52657;51.128;5.938;2023-12-04T04:22:19;3.73;67.98
65876;HTU21D;52657;51.128;5.938;2023-12-04T04:24:45;3.69;67.91
65876;HTU21D;52657;51.128;5.938;2023-12-04T04:27:10;3.67;67.84
65876;HTU21D;52657;51.128;5.938;2023-12-04T04:29:36;3.64;67.97
65876;HTU21D;52657;51.128;5.938;2023-12-04T04:32:02;3.64;68.33
65876;HTU21D;52657;51.128;5.938;2023-12-04T04:34:27;3.64;68.13
65876;HTU21D;52657;51.128;5.938;2023-12-04T04:36:53;3.65;68.00
65876;HTU21D;52657;51.128;5.938;2023-12-04T04:39:19;3.64;67.94
65876;HTU21D;52657;51.128;5.938;2023-12-04T04:41:44;3.65;67.84
65876;HTU21D;52657;51.128;5.938;2023-12-04T04:44:10;3.62;67.73
65876;HTU21D;52657;51.128;5.938;2023-12-04T04:46:36;3.62;67.84
65876;HTU21D;52657;51.128;5.938;2023-12-04T04:49:01;3.61;67.72
65876;HTU21D;52657;51.128;5.938;2023-12-04T04:51:28;3.61;67.67
65876;HTU21D;52657;51.128;5.938;2023-12-04T04:53:56;3.60;67.58
65876;HTU21D;52657;51.128;5.938;2023-12-04T04:56:22;3.60;67.52
65876;HTU21D;52657;51.128;5.938;2023-12-04T04:58:48;3.60;67.46
65876;HTU21D;52657;51.128;5.938;2023-12-04T05:01:14;3.59;67.34
65876;HTU21D;52657;51.128;5.938;2023-12-04T05:03:41;3.60;67.23
65876;HTU21D;52657;51.128;5.938;2023-12-04T05:06:07;3.56;67.12
65876;HTU21D;52657;51.128;5.938;2023-12-04T05:08:33;3.57;67.07
65876;HTU21D;52657;51.128;5.938;2023-12-04T05:10:58;3.55;66.73
65876;HTU21D;52657;51.128;5.938;2023-12-04T05:13:24;3.56;66.90
65876;HTU21D;52657;51.128;5.938;2023-12-04T05:15:50;3.59;66.96
65876;HTU21D;52657;51.128;5.938;2023-12-04T05:18:15;3.61;66.69
65876;HTU21D;52657;51.128;5.938;2023-12-04T05:20:41;3.64;66.57
65876;HTU21D;52657;51.128;5.938;2023-12-04T05:23:07;3.67;66.43
65876;HTU21D;52657;51.128;5.938;2023-12-04T05:25:33;3.67;66.33
65876;HTU21D;52657;51.128;5.938;2023-12-04T05:27:58;3.67;66.17
65876;HTU21D;52657;51.128;5.938;2023-12-04T05:30:24;3.67;66.10
65876;HTU21D;52657;51.128;5.938;2023-12-04T05:32:49;3.70;66.41
65876;HTU21D;52657;51.128;5.938;2023-12-04T05:35:15;3.71;66.48
65876;HTU21D;52657;51.128;5.938;2023-12-04T05:37:42;3.74;66.25
65876;HTU21D;52657;51.128;5.938;2023-12-04T05:40:09;3.72;65.98
65876;HTU21D;52657;51.128;5.938;2023-12-04T05:42:36;3.72;65.82
65876;HTU21D;52657;51.128;5.938;2023-12-04T05:45:03;3.70;65.87
65876;HTU21D;52657;51.128;5.938;2023-12-04T05:47:29;3.69;65.76
65876;HTU21D;52657;51.128;5.938;2023-12-04T05:49:54;3.70;65.95
65876;HTU21D;52657;51.128;5.938;2023-12-04T05:52:20;3.70;65.65
65876;HTU21D;52657;51.128;5.938;2023-12-04T05:54:46;3.72;65.04
65876;HTU21D;52657;51.128;5.938;2023-12-04T05:57:12;3.69;64.88
65876;HTU21D;52657;51.128;5.938;2023-12-04T05:59:37;3.67;64.98
65876;HTU21D;52657;51.128;5.938;2023-12-04T06:02:03;3.69;65.15
65876;HTU21D;52657;51.128;5.938;2023-12-04T06:04:29;3.69;65.17
65876;HTU21D;52657;51.128;5.938;2023-12-04T06:06:54;3.69;65.15
65876;HTU21D;52657;51.128;5.938;2023-12-04T06:09:20;3.69;65.11
65876;HTU21D;52657;51.128;5.938;2023-12-04T06:11:46;3.71;64.79
65876;HTU21D;52657;51.128;5.938;2023-12-04T06:14:12;3.70;64.64
65876;HTU21D;52657;51.128;5.938;2023-12-04T06:16:37;3.69;64.56
65876;HTU21D;52657;51.128;5.938;2023-12-04T06:19:03;3.67;64.49
65876;HTU21D;52657;51.128;5.938;2023-12-04T06:21:31;3.65;64.71
65876;HTU21D;52657;51.128;5.938;2023-12-04T06:23:58;3.64;64.61
65876;HTU21D;52657;51.128;5.938;2023-12-04T06:26:24;3.62;64.38
65876;HTU21D;52657;51.128;5.938;2023-12-04T06:28:50;3.58;64.40
65876;HTU21D;52657;51.128;5.938;2023-12-04T06:31:16;3.56;64.24
65876;HTU21D;52657;51.128;5.938;2023-12-04T06:33:42;3.55;64.00
65876;HTU21D;52657;51.128;5.938;2023-12-04T06:36:09;3.54;64.08
65876;HTU21D;52657;51.128;5.938;2023-12-04T06:38:40;3.54;64.05
65876;HTU21D;52657;51.128;5.938;2023-12-04T06:41:08;3.54;64.01
65876;HTU21D;52657;51.128;5.938;2023-12-04T06:43:34;3.52;63.73
65876;HTU21D;52657;51.128;5.938;2023-12-04T06:45:59;3.47;63.67
65876;HTU21D;52657;51.128;5.938;2023-12-04T06:48:26;3.52;63.60
65876;HTU21D;52657;51.128;5.938;2023-12-04T06:50:51;3.53;63.31
65876;HTU21D;52657;51.128;5.938;2023-12-04T06:53:17;3.53;63.17
65876;HTU21D;52657;51.128;5.938;2023-12-04T06:55:43;3.54;63.29
65876;HTU21D;52657;51.128;5.938;2023-12-04T06:58:10;3.54;63.17
65876;HTU21D;52657;51.128;5.938;2023-12-04T07:00:35;3.54;63.11
65876;HTU21D;52657;51.128;5.938;2023-12-04T07:03:01;3.55;62.92
65876;HTU21D;52657;51.128;5.938;2023-12-04T07:05:27;3.55;62.98
65876;HTU21D;52657;51.128;5.938;2023-12-04T07:07:53;3.53;62.95
65876;HTU21D;52657;51.128;5.938;2023-12-04T07:10:18;3.58;62.95
65876;HTU21D;52657;51.128;5.938;2023-12-04T07:12:44;3.59;62.93
65876;HTU21D;52657;51.128;5.938;2023-12-04T07:15:11;3.63;62.89
65876;HTU21D;52657;51.128;5.938;2023-12-04T07:17:38;3.65;62.60
65876;HTU21D;52657;51.128;5.938;2023-12-04T07:20:04;3.67;62.63
65876;HTU21D;52657;51.128;5.938;2023-12-04T07:22:33;3.73;62.52
65876;HTU21D;52657;51.128;5.938;2023-12-04T07:24:59;3.78;62.41
65876;HTU21D;52657;51.128;5.938;2023-12-04T07:27:25;3.82;62.81
65876;HTU21D;52657;51.128;5.938;2023-12-04T07:29:51;3.82;62.98
65876;HTU21D;52657;51.128;5.938;2023-12-04T07:32:16;3.82;63.28
65876;HTU21D;52657;51.128;5.938;2023-12-04T07:34:43;3.85;63.45
65876;HTU21D;52657;51.128;5.938;2023-12-04T07:37:09;3.89;62.86
65876;HTU21D;52657;51.128;5.938;2023-12-04T07:39:35;3.92;62.81
65876;HTU21D;52657;51.128;5.938;2023-12-04T07:42:01;3.93;62.55
65876;HTU21D;52657;51.128;5.938;2023-12-04T07:44:26;3.92;62.50
65876;HTU21D;52657;51.128;5.938;2023-12-04T07:46:52;3.90;62.73
65876;HTU21D;52657;51.128;5.938;2023-12-04T07:49:17;3.90;62.76
65876;HTU21D;52657;51.128;5.938;2023-12-04T07:51:43;3.90;62.81
65876;HTU21D;52657;51.128;5.938;2023-12-04T07:54:08;3.93;62.59
65876;HTU21D;52657;51.128;5.938;2023-12-04T07:56:34;3.97;62.53
65876;HTU21D;52657;51.128;5.938;2023-12-04T07:59:00;4.00;62.33
65876;HTU21D;52657;51.128;5.938;2023-12-04T08:01:25;4.01;62.21
65876;HTU21D;52657;51.128;5.938;2023-12-04T08:03:51;4.02;62.11
65876;HTU21D;52657;51.128;5.938;2023-12-04T08:06:16;4.01;61.74
65876;HTU21D;52657;51.128;5.938;2023-12-04T08:08:44;4.00;61.73
65876;HTU21D;52657;51.128;5.938;2023-12-04T08:11:11;3.98;61.85
65876;HTU21D;52657;51.128;5.938;2023-12-04T08:13:42;4.00;61.77
65876;HTU21D;52657;51.128;5.938;2023-12-04T08:16:16;4.00;61.46
65876;HTU21D;52657;51.128;5.938;2023-12-04T08:18:42;3.97;61.66
65876;HTU21D;52657;51.128;5.938;2023-12-04T08:21:09;3.97;61.83
65876;HTU21D;52657;51.128;5.938;2023-12-04T08:23:35;3.99;61.64
65876;HTU21D;52657;51.128;5.938;2023-12-04T08:26:00;4.01;61.76
65876;HTU21D;52657;51.128;5.938;2023-12-04T08:28:26;4.05;61.54
65876;HTU21D;52657;51.128;5.938;2023-12-04T08:30:52;4.09;61.66
65876;HTU21D;52657;51.128;5.938;2023-12-04T08:33:17;4.15;62.02
65876;HTU21D;52657;51.128;5.938;2023-12-04T08:35:46;4.16;61.82
65876;HTU21D;52657;51.128;5.938;2023-12-04T08:38:11;4.18;61.97
65876;HTU21D;52657;51.128;5.938;2023-12-04T08:40:37;4.17;62.08
65876;HTU21D;52657;51.128;5.938;2023-12-04T08:43:02;4.17;62.13
65876;HTU21D;52657;51.128;5.938;2023-12-04T08:45:29;4.15;61.64
65876;HTU21D;52657;51.128;5.938;2023-12-04T08:47:55;4.13;61.37
65876;HTU21D;52657;51.128;5.938;2023-12-04T08:50:21;4.13;61.44
65876;HTU21D;52657;51.128;5.938;2023-12-04T08:52:46;4.12;61.77
65876;HTU21D;52657;51.128;5.938;2023-12-04T08:55:12;4.10;61.89
65876;HTU21D;52657;51.128;5.938;2023-12-04T08:57:37;4.09;62.27
65876;HTU21D;52657;51.128;5.938;2023-12-04T09:00:04;4.09;62.69
65876;HTU21D;52657;51.128;5.938;2023-12-04T09:02:30;4.12;62.60
65876;HTU21D;52657;51.128;5.938;2023-12-04T09:04:56;4.16;62.08
65876;HTU21D;52657;51.128;5.938;2023-12-04T09:07:22;4.13;61.51
65876;HTU21D;52657;51.128;5.938;2023-12-04T09:09:48;4.12;61.72
65876;HTU21D;52657;51.128;5.938;2023-12-04T09:12:13;4.14;61.92
65876;HTU21D;52657;51.128;5.938;2023-12-04T09:14:40;4.10;62.24
65876;HTU21D;52657;51.128;5.938;2023-12-04T09:17:06;4.12;62.41
65876;HTU21D;52657;51.128;5.938;2023-12-04T09:19:32;4.13;62.21
65876;HTU21D;52657;51.128;5.938;2023-12-04T09:21:58;4.14;62.00
65876;HTU21D;52657;51.128;5.938;2023-12-04T09:24:23;4.18;61.86
65876;HTU21D;52657;51.128;5.938;2023-12-04T09:26:49;4.22;61.63
65876;HTU21D;52657;51.128;5.938;2023-12-04T09:29:15;4.23;61.67
65876;HTU21D;52657;51.128;5.938;2023-12-04T09:31:41;4.23;61.67
65876;HTU21D;52657;51.128;5.938;2023-12-04T09:34:08;4.21;61.94
65876;HTU21D;52657;51.128;5.938;2023-12-04T09:36:34;4.22;62.37
65876;HTU21D;52657;51.128;5.938;2023-12-04T09:39:00;4.26;62.18
65876;HTU21D;52657;51.128;5.938;2023-12-04T09:41:26;4.29;61.95
65876;HTU21D;52657;51.128;5.938;2023-12-04T09:43:53;4.29;61.96
65876;HTU21D;52657;51.128;5.938;2023-12-04T09:46:19;4.34;61.79
65876;HTU21D;52657;51.128;5.938;2023-12-04T09:48:45;4.35;61.91
65876;HTU21D;52657;51.128;5.938;2023-12-04T09:51:12;4.39;61.78
65876;HTU21D;52657;51.128;5.938;2023-12-04T09:53:39;4.43;62.11
65876;HTU21D;52657;51.128;5.938;2023-12-04T09:56:07;4.47;61.97
65876;HTU21D;52657;51.128;5.938;2023-12-04T09:58:39;4.51;61.62
65876;HTU21D;52657;51.128;5.938;2023-12-04T10:01:06;4.56;61.46
65876;HTU21D;52657;51.128;5.938;2023-12-04T10:03:32;4.56;61.23
65876;HTU21D;52657;51.128;5.938;2023-12-04T10:05:58;4.57;61.12
65876;HTU21D;52657;51.128;5.938;2023-12-04T10:08:24;4.61;61.19
65876;HTU21D;52657;51.128;5.938;2023-12-04T10:10:50;4.63;61.17
65876;HTU21D;52657;51.128;5.938;2023-12-04T10:13:16;4.68;61.25
65876;HTU21D;52657;51.128;5.938;2023-12-04T10:15:49;4.72;61.42
65876;HTU21D;52657;51.128;5.938;2023-12-04T10:18:27;4.72;61.72
65876;HTU21D;52657;51.128;5.938;2023-12-04T10:20:59;4.75;62.08
65876;HTU21D;52657;51.128;5.938;2023-12-04T10:23:42;4.80;61.34
65876;HTU21D;52657;51.128;5.938;2023-12-04T10:26:08;4.81;61.12
65876;HTU21D;52657;51.128;5.938;2023-12-04T10:28:35;4.87;61.01
65876;HTU21D;52657;51.128;5.938;2023-12-04T10:31:01;4.92;61.05
65876;HTU21D;52657;51.128;5.938;2023-12-04T10:33:28;5.00;60.69
65876;HTU21D;52657;51.128;5.938;2023-12-04T10:35:54;5.04;60.54
65876;HTU21D;52657;51.128;5.938;2023-12-04T10:38:23;5.10;60.84
65876;HTU21D;52657;51.128;5.938;2023-12-04T10:40:49;5.15;60.70
65876;HTU21D;52657;51.128;5.938;2023-12-04T10:43:20;5.18;60.72
65876;HTU21D;52657;51.128;5.938;2023-12-04T10:45:48;5.21;60.63
65876;HTU21D;52657;51.128;5.938;2023-12-04T10:48:16;5.24;60.38
65876;HTU21D;52657;51.128;5.938;2023-12-04T10:50:44;5.25;60.12
65876;HTU21D;52657;51.128;5.938;2023-12-04T10:53:12;5.28;60.30
65876;HTU21D;52657;51.128;5.938;2023-12-04T10:55:39;5.30;60.19
65876;HTU21D;52657;51.128;5.938;2023-12-04T10:58:10;5.34;60.58
65876;HTU21D;52657;51.128;5.938;2023-12-04T11:00:47;5.37;60.67
65876;HTU21D;52657;51.128;5.938;2023-12-04T11:03:20;5.38;60.86
65876;HTU21D;52657;51.128;5.938;2023-12-04T11:05:55;5.41;61.15
65876;HTU21D;52657;51.128;5.938;2023-12-04T11:08:23;5.46;61.38
65876;HTU21D;52657;51.128;5.938;2023-12-04T11:10:56;5.47;61.48
65876;HTU21D;52657;51.128;5.938;2023-12-04T11:13:28;5.47;61.20
65876;HTU21D;52657;51.128;5.938;2023-12-04T11:16:00;5.41;61.04
65876;HTU21D;52657;51.128;5.938;2023-12-04T11:18:31;5.34;61.27
65876;HTU21D;52657;51.128;5.938;2023-12-04T11:21:01;5.34;62.05
65876;HTU21D;52657;51.128;5.938;2023-12-04T11:23:31;5.33;62.02
65876;HTU21D;52657;51.128;5.938;2023-12-04T11:25:58;5.28;62.21
65876;HTU21D;52657;51.128;5.938;2023-12-04T11:28:27;5.25;62.45
65876;HTU21D;52657;51.128;5.938;2023-12-04T11:30:56;5.22;62.44
65876;HTU21D;52657;51.128;5.938;2023-12-04T11:33:24;5.20;62.83
65876;HTU21D;52657;51.128;5.938;2023-12-04T11:35:50;5.21;62.91
65876;HTU21D;52657;51.128;5.938;2023-12-04T11:38:17;5.20;63.23
65876;HTU21D;52657;51.128;5.938;2023-12-04T11:40:43;5.18;63.65
65876;HTU21D;52657;51.128;5.938;2023-12-04T11:43:28;5.18;64.37
65876;HTU21D;52657;51.128;5.938;2023-12-04T11:46:09;5.18;64.29
65876;HTU21D;52657;51.128;5.938;2023-12-04T11:48:37;5.20;64.42
65876;HTU21D;52657;51.128;5.938;2023-12-04T11:51:05;5.19;64.46
65876;HTU21D;52657;51.128;5.938;2023-12-04T11:53:32;5.19;64.72
65876;HTU21D;52657;51.128;5.938;2023-12-04T11:55:58;5.21;64.99
65876;HTU21D;52657;51.128;5.938;2023-12-04T11:58:23;5.23;65.24
65876;HTU21D;52657;51.128;5.938;2023-12-04T12:00:49;5.20;65.52
65876;HTU21D;52657;51.128;5.938;2023-12-04T12:03:15;5.18;66.14
65876;HTU21D;52657;51.128;5.938;2023-12-04T12:05:41;5.20;67.09
65876;HTU21D;52657;51.128;5.938;2023-12-04T12:08:08;5.23;67.59
65876;HTU21D;52657;51.128;5.938;2023-12-04T12:10:34;5.23;67.10
65876;HTU21D;52657;51.128;5.938;2023-12-04T12:13:00;5.25;67.06
65876;HTU21D;52657;51.128;5.938;2023-12-04T12:15:27;5.23;67.01
65876;HTU21D;52657;51.128;5.938;2023-12-04T12:17:53;5.19;67.05
65876;HTU21D;52657;51.128;5.938;2023-12-04T12:20:20;5.17;67.50
65876;HTU21D;52657;51.128;5.938;2023-12-04T12:22:49;5.18;68.18
65876;HTU21D;52657;51.128;5.938;2023-12-04T12:25:14;5.21;68.46
65876;HTU21D;52657;51.128;5.938;2023-12-04T12:27:41;5.21;68.23
65876;HTU21D;52657;51.128;5.938;2023-12-04T12:30:10;5.22;68.12
65876;HTU21D;52657;51.128;5.938;2023-12-04T12:32:36;5.21;68.03
65876;HTU21D;52657;51.128;5.938;2023-12-04T12:35:02;5.23;68.01
65876;HTU21D;52657;51.128;5.938;2023-12-04T12:37:33;5.23;67.82
65876;HTU21D;52657;51.128;5.938;2023-12-04T12:40:00;5.21;67.95
65876;HTU21D;52657;51.128;5.938;2023-12-04T12:42:28;5.20;68.01
65876;HTU21D;52657;51.128;5.938;2023-12-04T12:44:54;5.19;68.08
65876;HTU21D;52657;51.128;5.938;2023-12-04T12:47:22;5.20;67.93
65876;HTU21D;52657;51.128;5.938;2023-12-04T12:49:48;5.19;67.79
65876;HTU21D;52657;51.128;5.938;2023-12-04T12:52:14;5.18;67.74
65876;HTU21D;52657;51.128;5.938;2023-12-04T12:54:42;5.19;67.66
65876;HTU21D;52657;51.128;5.938;2023-12-04T12:57:08;5.23;67.59
65876;HTU21D;52657;51.128;5.938;2023-12-04T12:59:35;5.27;67.41
65876;HTU21D;52657;51.128;5.938;2023-12-04T13:02:01;5.30;67.59
65876;HTU21D;52657;51.128;5.938;2023-12-04T13:04:34;5.32;68.02
65876;HTU21D;52657;51.128;5.938;2023-12-04T13:07:00;5.26;68.28
65876;HTU21D;52657;51.128;5.938;2023-12-04T13:09:26;5.26;68.03
65876;HTU21D;52657;51.128;5.938;2023-12-04T13:11:51;5.26;67.77
65876;HTU21D;52657;51.128;5.938;2023-12-04T13:14:17;5.31;67.70
65876;HTU21D;52657;51.128;5.938;2023-12-04T13:16:43;5.33;67.65
65876;HTU21D;52657;51.128;5.938;2023-12-04T13:19:09;5.35;67.50
65876;HTU21D;52657;51.128;5.938;2023-12-04T13:21:34;5.38;67.49
65876;HTU21D;52657;51.128;5.938;2023-12-04T13:24:00;5.40;67.33
65876;HTU21D;52657;51.128;5.938;2023-12-04T13:26:26;5.39;67.24
65876;HTU21D;52657;51.128;5.938;2023-12-04T13:28:51;5.38;67.26
65876;HTU21D;52657;51.128;5.938;2023-12-04T13:31:17;5.36;67.79
65876;HTU21D;52657;51.128;5.938;2023-12-04T13:33:43;5.39;67.89
65876;HTU21D;52657;51.128;5.938;2023-12-04T13:36:11;5.38;67.36
65876;HTU21D;52657;51.128;5.938;2023-12-04T13:38:37;5.34;67.08
65876;HTU21D;52657;51.128;5.938;2023-12-04T13:41:03;5.31;67.18
65876;HTU21D;52657;51.128;5.938;2023-12-04T13:43:55;5.27;67.06
65876;HTU21D;52657;51.128;5.938;2023-12-04T13:46:21;5.23;67.26
65876;HTU21D;52657;51.128;5.938;2023-12-04T13:48:46;5.25;67.17
65876;HTU21D;52657;51.128;5.938;2023-12-04T13:51:13;5.22;67.40
65876;HTU21D;52657;51.128;5.938;2023-12-04T13:53:39;5.20;67.94
65876;HTU21D;52657;51.128;5.938;2023-12-04T13:56:11;5.15;68.18
65876;HTU21D;52657;51.128;5.938;2023-12-04T13:58:48;5.07;68.76
65876;HTU21D;52657;51.128;5.938;2023-12-04T14:01:22;5.04;68.22
65876;HTU21D;52657;51.128;5.938;2023-12-04T14:03:49;4.98;67.82
65876;HTU21D;52657;51.128;5.938;2023-12-04T14:06:15;4.97;67.91
65876;HTU21D;52657;51.128;5.938;2023-12-04T14:08:41;4.96;68.06
65876;HTU21D;52657;51.128;5.938;2023-12-04T14:11:07;5.00;68.40
65876;HTU21D;52657;51.128;5.938;2023-12-04T14:13:34;4.97;68.01
65876;HTU21D;52657;51.128;5.938;2023-12-04T14:16:00;4.93;67.97
65876;HTU21D;52657;51.128;5.938;2023-12-04T14:18:29;4.91;68.05
65876;HTU21D;52657;51.128;5.938;2023-12-04T14:20:58;4.88;68.17
65876;HTU21D;52657;51.128;5.938;2023-12-04T14:23:24;4.91;68.07
65876;HTU21D;52657;51.128;5.938;2023-12-04T14:25:50;4.87;68.21
65876;HTU21D;52657;51.128;5.938;2023-12-04T14:28:16;4.86;68.14
65876;HTU21D;52657;51.128;5.938;2023-12-04T14:30:42;4.81;68.37
65876;HTU21D;52657;51.128;5.938;2023-12-04T14:33:07;4.74;68.78
65876;HTU21D;52657;51.128;5.938;2023-12-04T14:35:35;4.68;68.97
65876;HTU21D;52657;51.128;5.938;2023-12-04T14:38:03;4.60;69.50
65876;HTU21D;52657;51.128;5.938;2023-12-04T14:40:30;4.58;69.80
65876;HTU21D;52657;51.128;5.938;2023-12-04T14:42:56;4.56;70.26
65876;HTU21D;52657;51.128;5.938;2023-12-04T14:45:22;4.53;70.28
65876;HTU21D;52657;51.128;5.938;2023-12-04T14:47:47;4.53;70.50
65876;HTU21D;52657;51.128;5.938;2023-12-04T14:50:14;4.49;70.61
65876;HTU21D;52657;51.128;5.938;2023-12-04T14:52:41;4.45;70.90
65876;HTU21D;52657;51.128;5.938;2023-12-04T14:55:12;4.46;71.10
65876;HTU21D;52657;51.128;5.938;2023-12-04T14:57:53;4.47;71.24
65876;HTU21D;52657;51.128;5.938;2023-12-04T15:00:51;4.49;71.60
65876;HTU21D;52657;51.128;5.938;2023-12-04T15:03:20;4.49;72.03
65876;HTU21D;52657;51.128;5.938;2023-12-04T15:06:05;4.42;72.77
65876;HTU21D;52657;51.128;5.938;2023-12-04T15:08:36;4.41;72.79
65876;HTU21D;52657;51.128;5.938;2023-12-04T15:11:21;4.41;72.79
65876;HTU21D;52657;51.128;5.938;2023-12-04T15:13:49;4.39;72.70
65876;HTU21D;52657;51.128;5.938;2023-12-04T15:16:33;4.42;72.79
65876;HTU21D;52657;51.128;5.938;2023-12-04T15:19:02;4.41;72.93
65876;HTU21D;52657;51.128;5.938;2023-12-04T15:21:31;4.42;73.10
65876;HTU21D;52657;51.128;5.938;2023-12-04T15:23:56;4.41;73.23
65876;HTU21D;52657;51.128;5.938;2023-12-04T15:26:23;4.43;73.38
65876;HTU21D;52657;51.128;5.938;2023-12-04T15:28:49;4.42;73.44